< < Back
Terminal Aerodrome Forecast


Current Version              Previous Versions:   1  2  3  4  5  6  7  8  9  

Terminal Aerodrome Forecast

146
FTUS42 KCHS 011129
TAFCHS
TAF
KCHS 011129Z 0112/0212 VRB03KT P6SM BKN150
     FM011500 13006KT P6SM BKN150
     FM011800 18012G18KT P6SM SCT035
     FM020300 19010KT P6SM SCT030 BKN060
     FM020900 20012G18KT 4SM -RA BR SCT020 OVC040=



Latest METAR

528
SAUS80 KWBC 012200 RRJ
MTRCHS
METAR KCHS 012156Z 17010KT 10SM SCT042 BKN200 18/09 A3010 RMK AO2 SLP191
T01780094 $


USA.gov is the U.S. government's official web portal to all federal, state and local government web resources and services.